Terminal Aerodrome Forecast
Issued by NWS

Current Version | Previous Version | Text Only | Print | Product List | Glossary On
Versions: 1 2 3 4 5 6 7 8 9 10 11 12
000
FTUS42 KTBW 010536
TAFPIE
TAF
KPIE 010536Z 0106/0206 12006KT P6SM SCT250
     FM011400 17007KT P6SM SCT250
     FM012000 27007KT P6SM FEW050 SCT250
     FM020000 33006KT P6SM SCT050 SCT250
     FM020200 VRB05KT P6SM FEW030 SCT250
     FM020400 07005KT P6SM FEW030 SCT250=

USA.gov is the U.S. government's official web portal to all federal, state and local government web resources and services.